Time;durP1;ratioP1;P1;durP2;ratioP2;P2;SDS_P1;SDS_P2;PMS_P1;PMS_P2;Temp;Humidity;BMP_temperature;BMP_pressure;BME280_temperature;BME280_humidity;BME280_pressure;Samples;Min_cycle;Max_cycle;Signal;HPM_P1;HPM_P2
2022/05/06 00:16:30;;;;;;;13.05;9.55;;;8.90;99.90;;;;;;6194040;23;20200;-85
2022/05/06 00:19:19;;;;;;;13.30;8.70;;;8.90;99.90;;;;;;6088970;23;20255;-84
2022/05/06 00:22:48;;;;;;;10.38;9.25;;;8.80;99.90;;;;;;6056387;23;20711;-84
2022/05/06 00:26:28;;;;;;;13.80;9.52;;;8.80;99.90;;;;;;6127756;23;20234;-83
2022/05/06 00:32:47;;;;;;;15.52;9.63;;;8.70;99.90;;;;;;6115460;23;20199;-84
2022/05/06 00:35:42;;;;;;;17.50;10.50;;;8.70;99.90;;;;;;6103109;23;20200;-84
2022/05/06 00:41:57;;;;;;;14.32;10.88;;;8.70;99.90;;;;;;6180378;23;20202;-85
2022/05/06 00:45:34;;;;;;;16.63;10.82;;;8.70;99.90;;;;;;6162654;23;20172;-86
2022/05/06 00:53:08;;;;;;;;;;;;;;;;;;;;;
2022/05/06 01:11:48;;;;;;;17.63;12.38;;;8.40;99.90;;;;;;5800824;24;20198;-84
2022/05/06 01:22:47;;;;;;;16.63;12.13;;;8.30;99.90;;;;;;5858079;24;20178;-84
2022/05/06 01:32:47;;;;;;;18.30;12.18;;;8.20;99.90;;;;;;5811052;24;20212;-84
2022/05/06 01:39:00;;;;;;;20.00;14.85;;;8.20;99.90;;;;;;6029494;23;20185;-84
2022/05/06 01:41:37;;;;;;;19.60;13.27;;;8.20;99.90;;;;;;6060920;23;20667;-82
2022/05/06 01:44:18;;;;;;;21.45;11.73;;;8.20;99.90;;;;;;6059715;23;20192;-84
2022/05/06 01:46:56;;;;;;;19.60;13.77;;;8.20;99.90;;;;;;6058836;23;20358;-82
2022/05/06 01:49:29;;;;;;;18.27;12.18;;;8.20;99.90;;;;;;6058972;23;20181;-84
2022/05/06 01:52:14;;;;;;;21.30;13.20;;;8.20;99.90;;;;;;6059613;23;20260;-83
2022/05/06 01:54:44;;;;;;;23.98;14.80;;;8.20;99.90;;;;;;6059217;23;20428;-84
2022/05/06 01:57:12;;;;;;;23.27;14.15;;;8.20;99.90;;;;;;6101905;23;20211;-84
2022/05/06 01:59:40;;;;;;;21.52;13.40;;;8.20;99.90;;;;;;6123128;23;20192;-85
2022/05/06 02:02:08;;;;;;;21.63;13.95;;;8.30;99.90;;;;;;6112527;23;20424;-83
2022/05/06 02:07:22;;;;;;;19.73;14.00;;;8.30;99.90;;;;;;6113206;23;20239;-85
2022/05/06 02:09:51;;;;;;;18.50;14.20;;;8.50;99.90;;;;;;6150164;23;20253;-84
2022/05/06 02:12:20;;;;;;;20.88;13.00;;;8.50;99.90;;;;;;6176148;23;20254;-86
2022/05/06 02:14:49;;;;;;;20.05;13.27;;;8.60;99.90;;;;;;6176534;23;20191;-84
2022/05/06 02:17:17;;;;;;;23.60;13.90;;;8.60;99.90;;;;;;6176756;23;20915;-82
2022/05/06 02:19:45;;;;;;;19.05;12.65;;;8.60;99.90;;;;;;6187996;23;20191;-85
2022/05/06 02:22:14;;;;;;;21.90;11.63;;;8.60;99.90;;;;;;6202114;23;20163;-87
2022/05/06 02:36:45;;;;;;;20.65;13.38;;;8.40;99.90;;;;;;5859016;24;20236;-87
2022/05/06 02:40:19;;;;;;;19.42;12.48;;;8.30;99.90;;;;;;5793797;24;20204;-85
2022/05/06 02:43:11;;;;;;;21.90;13.70;;;8.20;99.90;;;;;;5896103;24;20395;-84
2022/05/06 02:45:40;;;;;;;18.83;12.20;;;8.10;99.90;;;;;;5917497;24;20180;-85
2022/05/06 02:49:00;;;;;;;20.33;11.80;;;8.10;99.90;;;;;;5915038;24;20185;-86
2022/05/06 02:52:06;;;;;;;23.65;13.85;;;8.00;99.90;;;;;;5889592;24;20181;-85
2022/05/06 02:54:53;;;;;;;22.55;13.77;;;8.00;99.90;;;;;;5888860;24;20180;-86
2022/05/06 02:58:10;;;;;;;21.35;13.27;;;7.90;99.90;;;;;;5931904;24;20342;-85
2022/05/06 03:01:03;;;;;;;18.55;13.65;;;7.90;99.90;;;;;;5944894;24;20195;-85
2022/05/06 03:07:08;;;;;;;18.83;13.02;;;7.90;99.90;;;;;;6025156;23;20173;-85
2022/05/06 03:17:42;;;;;;;26.35;16.17;;;7.80;99.90;;;;;;5788364;24;20211;-83
2022/05/06 03:20:46;;;;;;;24.50;14.70;;;7.70;99.90;;;;;;5766843;24;20203;-84
2022/05/06 03:23:34;;;;;;;29.15;15.43;;;7.70;99.90;;;;;;5822915;24;20186;-85
2022/05/06 03:26:04;;;;;;;27.73;16.73;;;7.70;99.90;;;;;;5823742;24;20240;-85
2022/05/06 03:35:34;;;;;;;25.05;15.43;;;7.60;99.90;;;;;;5860030;24;20853;-85
2022/05/06 03:38:14;;;;;;;29.63;16.77;;;7.60;99.90;;;;;;5912730;24;20604;-84
2022/05/06 03:40:42;;;;;;;28.85;17.88;;;7.50;99.90;;;;;;5913895;24;20341;-84
2022/05/06 03:43:10;;;;;;;30.02;18.55;;;7.50;99.90;;;;;;5913244;24;20212;-84
2022/05/06 03:45:38;;;;;;;25.92;16.90;;;7.60;99.90;;;;;;5913789;24;20647;-86
2022/05/06 03:48:09;;;;;;;29.25;17.67;;;7.50;99.90;;;;;;5913322;24;20180;-84
2022/05/06 03:53:23;;;;;;;25.33;16.30;;;7.50;99.90;;;;;;6082982;23;20161;-84
2022/05/06 03:55:51;;;;;;;22.80;14.98;;;7.50;99.90;;;;;;6082181;23;20942;-85
2022/05/06 03:58:19;;;;;;;26.50;15.85;;;7.50;99.90;;;;;;6081914;23;20405;-84
2022/05/06 04:00:47;;;;;;;22.92;15.32;;;7.60;99.90;;;;;;6100558;23;20187;-84
2022/05/06 04:03:17;;;;;;;29.65;18.45;;;7.50;99.90;;;;;;6173501;23;20792;-83
2022/05/06 04:05:45;;;;;;;28.42;17.95;;;7.60;99.90;;;;;;6172972;23;20162;-83
2022/05/06 04:08:13;;;;;;;29.70;16.77;;;7.50;99.90;;;;;;6173210;23;20177;-84
2022/05/06 04:10:44;;;;;;;31.42;17.88;;;7.50;99.90;;;;;;6172896;23;20257;-85
2022/05/06 04:13:17;;;;;;;34.85;19.13;;;7.60;99.90;;;;;;6177978;23;20232;-83
2022/05/06 04:15:46;;;;;;;37.08;17.88;;;7.60;99.90;;;;;;6175788;23;20210;-84
2022/05/06 04:18:15;;;;;;;34.78;18.45;;;7.60;99.90;;;;;;6186117;23;20236;-85
2022/05/06 04:23:31;;;;;;;33.28;18.63;;;7.70;99.90;;;;;;6182086;23;20162;-88
2022/05/06 04:26:00;;;;;;;35.70;20.35;;;7.70;99.90;;;;;;6193565;23;20165;-89
2022/05/06 04:28:29;;;;;;;34.92;19.88;;;7.70;99.90;;;;;;6200088;23;20175;-86
2022/05/06 04:30:58;;;;;;;44.17;21.02;;;7.70;99.90;;;;;;6179124;23;20194;-83
2022/05/06 04:33:27;;;;;;;29.88;18.85;;;7.70;99.90;;;;;;6179506;23;20177;-84
2022/05/06 04:36:00;;;;;;;32.53;20.20;;;7.80;99.90;;;;;;6177765;23;20206;-85
2022/05/06 04:38:29;;;;;;;35.88;20.58;;;7.80;99.90;;;;;;6179926;23;20170;-85
2022/05/06 04:41:01;;;;;;;31.30;18.23;;;7.90;99.90;;;;;;6179450;23;20197;-85
2022/05/06 04:43:57;;;;;;;35.38;18.98;;;7.90;99.90;;;;;;6184089;23;20170;-90
2022/05/06 04:50:19;;;;;;;32.22;18.63;;;8.10;99.90;;;;;;6069192;23;20209;-88
2022/05/06 04:52:50;;;;;;;36.95;19.90;;;8.30;99.90;;;;;;6103368;23;20172;-89
2022/05/06 04:59:28;;;;;;;36.17;20.20;;;8.40;99.90;;;;;;6107932;23;20197;-90
2022/05/06 05:24:21;;;;;;;37.83;21.17;;;9.00;99.90;;;;;;5873054;24;20208;-87
2022/05/06 06:38:44;;;;;;;47.17;26.17;;;10.70;99.90;;;;;;6189580;22;20186;-84
2022/05/06 06:41:14;;;;;;;55.20;27.63;;;10.80;99.90;;;;;;6186881;23;20194;-86
2022/05/06 06:43:44;;;;;;;48.00;27.10;;;10.90;99.90;;;;;;6181965;23;20205;-87
2022/05/06 06:46:13;;;;;;;49.45;27.58;;;11.00;99.90;;;;;;6177934;23;20784;-85
2022/05/06 06:48:47;;;;;;;40.95;26.67;;;11.00;99.90;;;;;;6177039;23;20194;-86
2022/05/06 06:51:27;;;;;;;46.03;26.20;;;11.10;99.90;;;;;;6180119;23;20800;-86
2022/05/06 06:54:02;;;;;;;43.05;23.90;;;11.20;99.90;;;;;;6182084;23;20178;-86
2022/05/06 06:56:32;;;;;;;50.73;27.03;;;11.40;99.90;;;;;;6184890;23;20359;-86
2022/05/06 06:59:11;;;;;;;50.27;27.50;;;11.50;99.90;;;;;;6185935;23;20409;-86
2022/05/06 07:01:43;;;;;;;45.17;26.40;;;11.70;99.90;;;;;;6188190;23;20421;-87
2022/05/06 07:04:15;;;;;;;46.28;28.17;;;11.80;99.90;;;;;;6187548;23;20402;-86
2022/05/06 07:11:52;;;;;;;38.63;23.87;;;11.90;99.90;;;;;;6184326;23;20182;-86
2022/05/06 07:13:35;;;;;;;34.92;23.75;;;12.00;99.90;;;;;;6196991;23;20394;-86
2022/05/06 07:16:26;;;;;;;37.30;22.43;;;12.10;99.90;;;;;;6183456;23;20508;-83
2022/05/06 07:19:16;;;;;;;33.67;23.03;;;12.20;99.90;;;;;;6176489;23;20751;-85
2022/05/06 07:21:45;;;;;;;41.53;26.67;;;12.40;99.90;;;;;;6178766;23;20410;-85
2022/05/06 07:24:26;;;;;;;34.00;24.30;;;12.50;99.90;;;;;;6178911;23;20502;-85
2022/05/06 07:27:19;;;;;;;39.10;25.17;;;12.60;99.90;;;;;;6179364;23;20409;-84
2022/05/06 07:29:58;;;;;;;35.30;21.50;;;12.70;99.90;;;;;;6179340;23;20445;-86
2022/05/06 07:32:27;;;;;;;37.03;23.10;;;12.80;99.90;;;;;;6181079;23;21093;-86
2022/05/06 07:34:55;;;;;;;28.00;21.50;;;12.90;99.90;;;;;;6187699;23;20393;-87
2022/05/06 07:37:23;;;;;;;32.93;22.20;;;13.00;99.90;;;;;;6205977;23;20437;-89
2022/05/06 07:39:51;;;;;;;32.93;23.83;;;13.20;99.90;;;;;;6186180;23;20425;-88
2022/05/06 07:42:22;;;;;;;33.37;21.77;;;13.20;99.90;;;;;;6185902;23;20976;-86
2022/05/06 07:44:50;;;;;;;31.70;21.63;;;13.30;99.90;;;;;;5759246;23;10000949;-88
2022/05/06 07:47:19;;;;;;;28.00;20.40;;;13.40;99.90;;;;;;6185468;23;20186;-87
2022/05/06 07:49:49;;;;;;;35.57;23.03;;;13.40;99.90;;;;;;6185821;23;20441;-87
2022/05/06 07:52:18;;;;;;;27.90;20.27;;;13.50;99.90;;;;;;6185587;23;20391;-87
2022/05/06 07:54:46;;;;;;;38.37;24.03;;;13.60;99.90;;;;;;6185109;23;20425;-86
2022/05/06 07:57:14;;;;;;;24.83;18.37;;;13.60;99.90;;;;;;6182046;23;20843;-86
2022/05/06 07:59:43;;;;;;;34.47;21.63;;;13.80;99.90;;;;;;6183234;23;20502;-87
2022/05/06 08:04:56;;;;;;;29.00;20.40;;;13.90;99.90;;;;;;6182832;23;20828;-86
2022/05/06 08:07:25;;;;;;;28.77;19.40;;;14.00;99.90;;;;;;6185168;23;20420;-87
2022/05/06 08:09:53;;;;;;;26.37;19.83;;;14.10;99.90;;;;;;6185404;23;21171;-87
2022/05/06 08:12:21;;;;;;;30.20;20.70;;;14.20;99.90;;;;;;6184131;23;20883;-88
2022/05/06 08:14:51;;;;;;;27.00;20.70;;;14.20;99.90;;;;;;6184393;23;20429;-88
2022/05/06 08:17:19;;;;;;;30.63;21.33;;;14.30;99.90;;;;;;6184398;23;20437;-88
2022/05/06 08:19:47;;;;;;;31.43;21.20;;;14.40;99.90;;;;;;6184856;23;20449;-87
2022/05/06 08:22:15;;;;;;;29.63;20.50;;;14.40;99.90;;;;;;6183250;23;21056;-87
2022/05/06 08:24:43;;;;;;;31.60;20.17;;;14.50;99.90;;;;;;6182248;23;20452;-86
2022/05/06 08:27:38;;;;;;;29.20;21.17;;;14.60;99.90;;;;;;6178544;23;20433;-85
2022/05/06 08:30:11;;;;;;;29.00;21.10;;;14.60;99.90;;;;;;6180351;23;20417;-84
2022/05/06 08:32:39;;;;;;;31.10;20.97;;;14.70;99.90;;;;;;6179963;23;21165;-85
2022/05/06 08:35:09;;;;;;;32.77;24.93;;;14.80;99.90;;;;;;6180211;23;20390;-84
2022/05/06 08:37:41;;;;;;;26.83;20.50;;;14.90;99.90;;;;;;6186199;23;20437;-85
2022/05/06 08:40:16;;;;;;;27.13;18.93;;;14.90;99.90;;;;;;6191387;23;20441;-88
2022/05/06 08:42:44;;;;;;;28.93;21.03;;;15.10;99.90;;;;;;6184039;23;20737;-85
2022/05/06 08:50:52;;;;;;;26.33;19.23;;;15.50;99.90;;;;;;6179430;23;20707;-87
2022/05/06 08:53:26;;;;;;;32.50;23.57;;;15.50;99.90;;;;;;6183683;23;20415;-86
2022/05/06 08:55:56;;;;;;;32.40;23.40;;;15.50;99.90;;;;;;6184818;23;20413;-86
2022/05/06 08:58:25;;;;;;;29.03;21.70;;;15.50;99.90;;;;;;6181008;23;20709;-84
2022/05/06 09:01:03;;;;;;;27.40;20.57;;;15.60;99.90;;;;;;6178408;23;20906;-83
2022/05/06 09:03:38;;;;;;;24.50;18.53;;;15.70;99.90;;;;;;6179957;23;20413;-87
2022/05/06 09:06:17;;;;;;;23.70;16.80;;;15.90;99.90;;;;;;6178785;23;20382;-86
2022/05/06 09:08:46;;;;;;;29.53;19.60;;;16.00;99.90;;;;;;6183240;23;20462;-85
2022/05/06 09:11:17;;;;;;;25.50;19.50;;;16.10;99.90;;;;;;6178856;23;20433;-85
2022/05/06 09:13:55;;;;;;;25.20;17.90;;;16.30;99.90;;;;;;6182205;23;20569;-86
2022/05/06 09:16:39;;;;;;;26.33;17.83;;;16.40;99.90;;;;;;6182605;23;20492;-86
2022/05/06 09:19:13;;;;;;;21.67;16.40;;;16.50;99.90;;;;;;6186642;23;20521;-85
2022/05/06 09:21:59;;;;;;;18.73;16.20;;;16.60;99.90;;;;;;6182531;23;20371;-84
2022/05/06 09:24:28;;;;;;;20.20;15.83;;;16.70;99.90;;;;;;6183012;23;20433;-87
2022/05/06 09:27:00;;;;;;;16.90;14.47;;;16.80;99.90;;;;;;6180456;23;20433;-85
2022/05/06 09:29:31;;;;;;;16.07;13.40;;;16.90;99.90;;;;;;6180000;23;20434;-85
2022/05/06 09:32:21;;;;;;;17.40;14.20;;;17.00;99.90;;;;;;6179795;23;20525;-85
2022/05/06 09:34:53;;;;;;;20.30;14.63;;;17.00;99.90;;;;;;6187452;23;20390;-85
2022/05/06 09:37:37;;;;;;;24.00;15.70;;;17.10;99.90;;;;;;6189477;23;20474;-87
2022/05/06 09:40:11;;;;;;;19.23;14.53;;;17.30;99.90;;;;;;6191601;23;20435;-87
2022/05/06 09:43:01;;;;;;;18.57;14.70;;;17.40;99.90;;;;;;6198344;23;20387;-86
2022/05/06 09:45:31;;;;;;;16.70;13.00;;;17.40;99.90;;;;;;6177125;23;20780;-86
2022/05/06 09:48:09;;;;;;;14.03;12.53;;;17.40;99.90;;;;;;6183909;23;20367;-85
2022/05/06 09:50:39;;;;;;;16.20;12.07;;;17.40;99.90;;;;;;6183575;23;20489;-85
2022/05/06 09:53:11;;;;;;;17.30;11.90;;;17.30;99.90;;;;;;6185716;23;20681;-84
2022/05/06 09:55:42;;;;;;;12.83;10.13;;;17.50;99.90;;;;;;6183363;23;20421;-85
2022/05/06 09:58:10;;;;;;;13.87;12.40;;;17.70;99.90;;;;;;6187658;23;20723;-84
2022/05/06 10:00:39;;;;;;;16.77;12.00;;;18.00;99.90;;;;;;6180458;23;20452;-86
2022/05/06 10:03:10;;;;;;;16.60;11.80;;;18.20;99.90;;;;;;6183729;23;20415;-86
2022/05/06 10:05:39;;;;;;;15.30;11.20;;;18.20;99.90;;;;;;6184064;23;20725;-86
2022/05/06 10:08:13;;;;;;;8.93;8.03;;;18.30;99.90;;;;;;6181583;23;21049;-85
2022/05/06 10:10:46;;;;;;;12.10;10.67;;;18.50;99.90;;;;;;6182053;23;20483;-83
2022/05/06 10:13:18;;;;;;;14.30;11.63;;;18.60;99.90;;;;;;6183603;23;20407;-85
2022/05/06 10:15:52;;;;;;;15.13;12.60;;;18.90;99.90;;;;;;6182565;23;20670;-84
2022/05/06 10:18:38;;;;;;;14.67;11.60;;;18.90;99.90;;;;;;6184405;23;21022;-85
2022/05/06 10:21:11;;;;;;;14.47;12.27;;;18.80;99.90;;;;;;6186130;23;20438;-86
2022/05/06 10:23:51;;;;;;;15.70;12.40;;;18.70;99.90;;;;;;6186028;23;20411;-84
2022/05/06 10:26:53;;;;;;;13.20;11.80;;;18.60;99.90;;;;;;6184820;23;20498;-85
2022/05/06 10:33:00;;;;;;;12.87;11.40;;;18.40;99.90;;;;;;6182228;23;20438;-86
2022/05/06 10:35:42;;;;;;;11.17;9.90;;;18.30;99.90;;;;;;6181634;23;20489;-84
2022/05/06 10:38:24;;;;;;;16.50;11.80;;;18.20;99.90;;;;;;6179981;23;21133;-84
2022/05/06 10:41:48;;;;;;;14.03;11.90;;;18.20;99.90;;;;;;6184514;23;20466;-89
2022/05/06 11:00:25;;;;;;;10.00;8.93;;;18.60;99.90;;;;;;6183642;23;20974;-87
2022/05/06 11:02:53;;;;;;;12.50;9.47;;;18.70;99.90;;;;;;6182227;23;20404;-88
2022/05/06 11:05:25;;;;;;;8.83;7.50;;;18.80;99.90;;;;;;6183917;23;20856;-86
2022/05/06 11:07:56;;;;;;;10.33;9.27;;;19.00;99.90;;;;;;6182572;23;20831;-85
2022/05/06 11:10:26;;;;;;;10.27;9.13;;;19.10;99.90;;;;;;6184667;23;20433;-88
2022/05/06 11:13:08;;;;;;;12.17;10.97;;;19.20;99.90;;;;;;6184803;23;20425;-87
2022/05/06 11:15:38;;;;;;;10.13;9.10;;;19.40;99.90;;;;;;6188450;23;20398;-89
2022/05/06 11:18:07;;;;;;;12.53;11.23;;;19.60;99.90;;;;;;6185015;23;20904;-86
2022/05/06 11:20:38;;;;;;;15.70;10.73;;;19.70;99.90;;;;;;6185373;23;20414;-89
2022/05/06 11:23:08;;;;;;;14.10;11.20;;;19.80;99.90;;;;;;6186039;23;20421;-87
2022/05/06 11:25:38;;;;;;;12.30;11.07;;;19.80;99.90;;;;;;6184897;23;20414;-90
2022/05/06 11:28:13;;;;;;;12.17;10.80;;;19.70;99.90;;;;;;6184313;23;20429;-86
2022/05/06 11:30:46;;;;;;;11.43;10.30;;;19.70;99.90;;;;;;6180240;23;20440;-83
2022/05/06 11:33:23;;;;;;;13.37;11.97;;;19.70;99.90;;;;;;6186886;23;20416;-85
2022/05/06 11:35:53;;;;;;;13.90;10.87;;;19.70;99.90;;;;;;6195898;23;20401;-84
2022/05/06 11:38:33;;;;;;;11.67;10.50;;;19.70;99.90;;;;;;6195552;23;20406;-84
2022/05/06 11:41:08;;;;;;;11.20;9.63;;;19.80;99.90;;;;;;6193042;23;20480;-85
2022/05/06 11:43:36;;;;;;;10.90;9.00;;;19.90;99.90;;;;;;6186838;23;20910;-85
2022/05/06 11:49:04;;;;;;;11.40;9.17;;;20.10;99.90;;;;;;6107906;23;20650;-81
2022/05/06 11:51:38;;;;;;;9.97;8.23;;;20.30;99.90;;;;;;6161210;23;20422;-83
2022/05/06 11:54:08;;;;;;;9.47;8.23;;;20.40;99.90;;;;;;6183179;23;20430;-86
2022/05/06 11:56:39;;;;;;;11.60;8.37;;;20.60;99.90;;;;;;6188964;23;20767;-85
2022/05/06 11:59:08;;;;;;;12.57;8.70;;;20.70;99.90;;;;;;6190276;23;20727;-87
2022/05/06 12:01:38;;;;;;;8.37;7.50;;;20.90;99.90;;;;;;6191955;23;20522;-85
2022/05/06 12:04:09;;;;;;;11.10;8.30;;;21.00;99.90;;;;;;6188564;23;20620;-85
2022/05/06 12:06:40;;;;;;;9.87;8.87;;;21.00;99.90;;;;;;6179460;23;20681;-83
2022/05/06 12:09:13;;;;;;;8.43;7.57;;;21.10;99.90;;;;;;6179410;23;20409;-85
2022/05/06 12:11:42;;;;;;;11.63;9.40;;;21.20;99.90;;;;;;6183152;23;20385;-84
2022/05/06 12:14:13;;;;;;;10.07;9.07;;;21.40;99.90;;;;;;6182453;23;20413;-86
2022/05/06 12:16:55;;;;;;;10.93;8.83;;;21.50;99.90;;;;;;6184887;23;20824;-88
2022/05/06 12:19:39;;;;;;;7.83;7.03;;;21.60;99.90;;;;;;6187535;23;20454;-84
2022/05/06 12:22:09;;;;;;;8.60;7.90;;;21.70;99.90;;;;;;6189510;23;20406;-86
2022/05/06 12:24:45;;;;;;;9.80;8.80;;;21.80;99.90;;;;;;6194919;23;20423;-84
2022/05/06 12:27:23;;;;;;;8.43;7.40;;;21.90;99.90;;;;;;6192558;23;20482;-87
2022/05/06 12:29:51;;;;;;;7.67;6.97;;;22.00;99.90;;;;;;6190921;23;20429;-86
2022/05/06 12:32:22;;;;;;;8.70;7.10;;;22.20;99.90;;;;;;6183480;23;20395;-84
2022/05/06 12:35:03;;;;;;;7.00;6.33;;;22.30;99.90;;;;;;6182731;23;20422;-86
2022/05/06 12:37:32;;;;;;;6.10;5.50;;;22.30;99.90;;;;;;6183279;23;20477;-85
2022/05/06 12:40:01;;;;;;;8.20;7.40;;;22.50;99.90;;;;;;6189840;23;20468;-86
2022/05/06 12:42:29;;;;;;;8.03;7.33;;;22.40;99.90;;;;;;6185277;23;20437;-84
2022/05/06 12:45:18;;;;;;;8.97;7.97;;;22.20;99.90;;;;;;6185597;23;20390;-85
2022/05/06 12:50:35;;;;;;;8.50;7.07;;;22.10;99.90;;;;;;6202599;23;20437;-85
2022/05/06 12:53:03;;;;;;;7.33;6.63;;;22.00;99.90;;;;;;6194921;23;20418;-85
2022/05/06 12:55:32;;;;;;;6.13;5.63;;;21.90;99.90;;;;;;6188508;23;20394;-87
2022/05/06 12:58:00;;;;;;;8.50;5.13;;;21.90;99.90;;;;;;6185776;23;20446;-85
2022/05/06 13:00:28;;;;;;;8.77;6.50;;;21.90;99.90;;;;;;6182659;23;20450;-85
2022/05/06 13:03:00;;;;;;;10.23;7.10;;;22.00;99.90;;;;;;6184903;23;20853;-85
2022/05/06 13:05:29;;;;;;;5.67;5.30;;;21.90;99.90;;;;;;6181872;23;20888;-86
2022/05/06 13:08:12;;;;;;;5.87;5.20;;;21.90;99.90;;;;;;6183288;23;20465;-86
2022/05/06 13:10:48;;;;;;;5.77;5.37;;;22.10;99.90;;;;;;6184363;23;20430;-87
2022/05/06 13:13:18;;;;;;;5.57;5.10;;;22.30;99.70;;;;;;6181726;23;20431;-88
2022/05/06 13:15:51;;;;;;;5.00;4.60;;;22.40;99.70;;;;;;6184970;23;20474;-87
2022/05/06 13:18:21;;;;;;;5.53;5.03;;;22.50;99.50;;;;;;6183291;23;20410;-87
2022/05/06 13:20:49;;;;;;;6.27;4.97;;;22.60;99.90;;;;;;6182416;23;20817;-87
2022/05/06 13:23:19;;;;;;;9.13;6.50;;;22.90;99.80;;;;;;6189961;23;20455;-86
2022/05/06 13:25:48;;;;;;;6.90;6.30;;;23.00;99.50;;;;;;6187582;23;20554;-86
2022/05/06 13:28:17;;;;;;;5.37;4.97;;;23.10;98.90;;;;;;6183940;23;20408;-86
2022/05/06 13:30:47;;;;;;;5.00;4.23;;;23.00;98.90;;;;;;6182347;23;20936;-84
2022/05/06 13:33:23;;;;;;;6.70;4.70;;;22.90;98.80;;;;;;6184550;23;20976;-86
2022/05/06 13:35:52;;;;;;;4.57;4.27;;;23.10;98.90;;;;;;6185402;23;20424;-86
2022/05/06 13:38:25;;;;;;;5.37;4.87;;;23.20;99.20;;;;;;6185978;23;20432;-86
2022/05/06 13:40:55;;;;;;;4.20;3.90;;;23.20;98.60;;;;;;6184446;23;20475;-85
2022/05/06 13:43:23;;;;;;;5.60;5.20;;;23.20;98.90;;;;;;6185651;23;20405;-85
2022/05/06 13:45:51;;;;;;;5.67;5.17;;;23.20;98.60;;;;;;6185970;23;20420;-86
2022/05/06 13:48:21;;;;;;;5.23;4.10;;;23.10;98.10;;;;;;6183853;23;21193;-86
2022/05/06 13:50:53;;;;;;;4.83;4.53;;;23.00;98.20;;;;;;6183649;23;20563;-87
2022/05/06 13:53:25;;;;;;;6.33;5.70;;;22.90;98.40;;;;;;6195984;23;20416;-84
2022/05/06 14:01:27;;;;;;;5.97;5.47;;;22.70;98.10;;;;;;6180116;23;20545;-86
2022/05/06 14:04:01;;;;;;;5.07;4.57;;;22.70;98.30;;;;;;6182421;23;20409;-87
2022/05/06 14:06:30;;;;;;;7.00;6.30;;;22.70;98.30;;;;;;6182690;23;20912;-87
2022/05/06 14:09:12;;;;;;;4.80;4.30;;;22.50;98.20;;;;;;6186057;23;20419;-88
2022/05/06 14:50:10;;;;;;;8.83;5.90;;;22.20;99.30;;;;;;6075897;23;20418;-89
2022/05/06 14:53:30;;;;;;;7.97;6.17;;;22.10;99.20;;;;;;6140632;23;20465;-88
2022/05/06 14:56:43;;;;;;;7.87;5.97;;;21.90;98.90;;;;;;6170258;23;20401;-89
2022/05/06 15:10:14;;;;;;;6.23;5.63;;;22.00;99.90;;;;;;5948219;24;20423;-88
2022/05/06 15:12:59;;;;;;;;;;;;;;;;;;;;;
2022/05/06 15:15:54;;;;;;;5.70;5.20;;;22.20;99.40;;;;;;5981648;24;20445;-89
2022/05/06 15:24:45;;;;;;;5.37;4.90;;;22.30;99.10;;;;;;6192765;23;20452;-86
2022/05/06 15:27:35;;;;;;;5.60;5.10;;;22.20;99.30;;;;;;6186821;23;20418;-87
2022/05/06 15:30:20;;;;;;;6.53;5.97;;;22.20;99.00;;;;;;6188366;23;20532;-87
2022/05/06 15:32:56;;;;;;;7.60;5.60;;;22.20;99.00;;;;;;6184187;23;20418;-87
2022/05/06 15:35:53;;;;;;;6.60;6.00;;;22.10;99.10;;;;;;6184500;23;20406;-87
2022/05/06 15:42:14;;;;;;;4.83;4.43;;;21.80;99.30;;;;;;6140487;23;20511;-89
2022/05/06 15:49:13;;;;;;;4.93;4.43;;;21.60;99.00;;;;;;6028519;23;20783;-91
2022/05/06 16:42:17;;;;;;;6.57;5.97;;;21.00;99.90;;;;;;6149947;23;21100;-86
2022/05/06 16:44:59;;;;;;;9.70;8.40;;;20.90;99.90;;;;;;6043419;23;20458;-89
2022/05/06 16:48:07;;;;;;;8.73;7.87;;;20.90;99.90;;;;;;6124479;23;20413;-86
2022/05/06 16:50:52;;;;;;;11.73;10.60;;;21.00;99.90;;;;;;6063974;23;21220;-85
2022/05/06 16:57:49;;;;;;;9.03;8.13;;;20.90;99.90;;;;;;6070756;23;20414;-86
2022/05/06 17:11:31;;;;;;;9.00;7.40;;;21.00;99.90;;;;;;6111954;23;20466;-86
2022/05/06 17:18:22;;;;;;;10.47;9.37;;;21.00;99.90;;;;;;6037644;23;20429;-86
2022/05/06 17:20:56;;;;;;;10.47;9.33;;;20.90;99.90;;;;;;6032967;23;20561;-85
2022/05/06 17:24:06;;;;;;;10.43;9.17;;;20.60;99.90;;;;;;6034946;23;20563;-87
2022/05/06 17:27:16;;;;;;;12.00;9.27;;;20.30;99.90;;;;;;6035772;23;21004;-88
2022/05/06 17:30:47;;;;;;;14.70;10.70;;;20.20;99.90;;;;;;6007230;23;21141;-88
2022/05/06 17:34:01;;;;;;;13.40;10.53;;;20.20;99.90;;;;;;5870518;24;20472;-88
2022/05/06 17:47:15;;;;;;;12.67;10.67;;;19.80;99.90;;;;;;6069673;23;20445;-87
2022/05/06 17:57:15;;;;;;;13.00;10.40;;;19.20;99.90;;;;;;6055155;23;20415;-89
2022/05/06 18:02:42;;;;;;;10.57;9.47;;;18.70;99.90;;;;;;6097646;23;20502;-87
2022/05/06 18:05:12;;;;;;;9.73;8.70;;;18.50;99.90;;;;;;6115483;23;20629;-89
2022/05/06 18:11:32;;;;;;;9.50;8.60;;;18.30;99.90;;;;;;6132963;23;20527;-87
2022/05/06 18:14:48;;;;;;;9.87;8.87;;;18.20;99.90;;;;;;6186634;23;20427;-86
2022/05/06 18:21:49;;;;;;;8.33;7.50;;;18.00;99.90;;;;;;6001066;23;20443;-88
2022/05/06 18:28:49;;;;;;;8.60;7.80;;;17.70;99.90;;;;;;5969212;24;20489;-84
2022/05/06 18:35:10;;;;;;;7.83;7.13;;;17.50;99.90;;;;;;5973290;24;20408;-85
2022/05/06 18:37:40;;;;;;;6.57;5.97;;;17.40;99.90;;;;;;5974385;24;20413;-84
2022/05/06 18:40:10;;;;;;;6.00;5.50;;;17.40;99.90;;;;;;6043039;23;20449;-84
2022/05/06 18:42:51;;;;;;;6.97;6.33;;;17.40;99.90;;;;;;6049348;23;20588;-87
2022/05/06 18:45:22;;;;;;;4.73;4.43;;;17.40;99.90;;;;;;6029734;23;20480;-85
2022/05/06 18:47:50;;;;;;;4.97;4.50;;;17.40;99.90;;;;;;6030792;23;20441;-84
2022/05/06 18:50:18;;;;;;;4.57;4.17;;;17.40;99.90;;;;;;6030867;23;20690;-84
2022/05/06 18:52:48;;;;;;;4.10;3.80;;;17.30;99.90;;;;;;6030997;23;21134;-83
2022/05/06 18:55:20;;;;;;;3.70;3.50;;;17.30;99.90;;;;;;6028890;23;20386;-85
2022/05/06 18:57:48;;;;;;;2.80;2.70;;;17.30;99.90;;;;;;6057986;23;20481;-84
2022/05/06 19:00:17;;;;;;;2.47;2.37;;;17.20;99.90;;;;;;6178285;23;20717;-83
2022/05/06 19:02:45;;;;;;;2.90;2.70;;;17.20;99.90;;;;;;6180753;23;20498;-84
2022/05/06 19:05:14;;;;;;;2.50;2.40;;;17.20;99.90;;;;;;6191483;23;20448;-85
2022/05/06 19:07:45;;;;;;;2.60;2.50;;;17.30;99.90;;;;;;6202297;23;20412;-85
2022/05/06 19:10:41;;;;;;;2.30;2.10;;;17.20;99.90;;;;;;6188088;23;20486;-86
2022/05/06 19:13:14;;;;;;;3.00;2.80;;;17.20;99.90;;;;;;6188267;23;20402;-87
2022/05/06 19:15:44;;;;;;;2.70;2.60;;;17.10;99.90;;;;;;6188563;23;20433;-84
2022/05/06 19:18:20;;;;;;;2.30;2.20;;;17.10;99.90;;;;;;6188242;23;20408;-84
2022/05/06 19:27:27;;;;;;;1.97;1.87;;;17.10;99.90;;;;;;6197637;23;20423;-87
2022/05/06 19:33:31;;;;;;;2.17;1.53;;;16.90;99.90;;;;;;6197855;23;20383;-85
2022/05/06 19:36:00;;;;;;;1.80;1.70;;;16.80;99.90;;;;;;6205699;23;20390;-88
2022/05/06 19:38:30;;;;;;;1.40;1.40;;;16.80;99.90;;;;;;6206463;23;20395;-86
2022/05/06 19:40:58;;;;;;;1.53;1.30;;;16.80;99.90;;;;;;6205715;23;20417;-85
2022/05/06 19:43:28;;;;;;;1.80;1.70;;;16.80;99.90;;;;;;6190324;23;20445;-85
2022/05/06 19:46:21;;;;;;;2.00;1.90;;;16.70;99.90;;;;;;6183924;23;20451;-84
2022/05/06 19:49:02;;;;;;;1.60;1.50;;;16.70;99.90;;;;;;6195387;23;20672;-89
2022/05/06 19:54:42;;;;;;;1.73;1.73;;;16.70;99.90;;;;;;6188482;23;20393;-88
2022/05/06 19:57:11;;;;;;;2.50;2.40;;;16.70;99.90;;;;;;6196709;23;20922;-89
2022/05/06 19:59:42;;;;;;;2.00;1.90;;;16.70;99.90;;;;;;6194144;23;20426;-89
2022/05/06 20:02:18;;;;;;;1.80;1.70;;;16.70;99.90;;;;;;6193224;23;20437;-87
2022/05/06 20:04:47;;;;;;;2.13;2.03;;;16.70;99.90;;;;;;6191869;23;20420;-88
2022/05/06 20:07:25;;;;;;;2.17;2.07;;;16.70;99.90;;;;;;6191227;23;20433;-90
2022/05/06 20:10:04;;;;;;;2.10;2.00;;;16.70;99.90;;;;;;6207531;23;20456;-88
2022/05/06 20:12:32;;;;;;;2.27;2.10;;;16.70;99.90;;;;;;6193256;23;20417;-88
2022/05/06 20:15:05;;;;;;;2.07;1.93;;;16.60;99.90;;;;;;6193918;23;20485;-88
2022/05/06 20:17:34;;;;;;;2.53;2.33;;;16.60;99.90;;;;;;6191667;23;20406;-88
2022/05/06 20:20:03;;;;;;;2.00;1.90;;;16.50;99.90;;;;;;6190665;23;20440;-87
2022/05/06 20:22:31;;;;;;;2.00;1.90;;;16.50;99.90;;;;;;6190530;23;20438;-88
2022/05/06 20:25:10;;;;;;;2.80;2.70;;;16.50;99.90;;;;;;6190325;23;20428;-87
2022/05/06 20:27:40;;;;;;;2.03;1.80;;;16.50;99.90;;;;;;6192850;23;20469;-87
2022/05/06 20:30:12;;;;;;;2.90;2.70;;;16.50;99.90;;;;;;6193307;23;20440;-86
2022/05/06 20:32:42;;;;;;;2.00;1.90;;;16.50;99.90;;;;;;6192459;23;20517;-86
2022/05/06 20:35:13;;;;;;;2.17;1.97;;;16.50;99.90;;;;;;6192121;23;20631;-88
2022/05/06 20:37:45;;;;;;;2.20;2.00;;;16.40;99.90;;;;;;6191355;23;20414;-87